Airport ID:7S6
Update Time (UTC):13/07/2020 07:56
Wind Speed (Knots):7
Wind Direction (Magnetic):330
Temperature (°C):12.2
Dew Point (°C):4.2
Humidity (%):58.2
Altimeter (inHg):29.97
Density Altitude (Feet):
Visibility (Miles):10
Clouds (Hundreds of feet):***
Present Weather:
METAR:METAR 7S6 130755Z AUTO 34007KT 10SM 12/04 A2997 RMK A01

The data displayed is for advisory purposes only and is not to be used for flight planning or operations.